Time;durP1;ratioP1;P1;durP2;ratioP2;P2;SDS_P1;SDS_P2;PMS_P1;PMS_P2;Temp;Humidity;BMP_temperature;BMP_pressure;BME280_temperature;BME280_humidity;BME280_pressure;Samples;Min_cycle;Max_cycle;Signal;HPM_P1;HPM_P2
2022/09/05 00:00:11;;;;;;;3.92;2.80;;;23.50;99.90;;;;;;1028673;28;20743;-67
2022/09/05 00:00:45;;;;;;;5.03;2.80;;;23.50;99.90;;;;;;1030406;28;20045;-68
2022/09/05 00:01:32;;;;;;;3.67;2.60;;;23.50;99.90;;;;;;1027171;28;20105;-68
2022/09/05 00:02:05;;;;;;;2.75;2.20;;;23.50;99.90;;;;;;1030552;28;20289;-70
2022/09/05 00:02:44;;;;;;;3.17;2.50;;;23.50;99.90;;;;;;1030224;28;20037;-68
2022/09/05 00:03:44;;;;;;;3.30;2.75;;;23.50;99.90;;;;;;1027746;28;20062;-69
2022/09/05 00:04:26;;;;;;;3.78;2.53;;;23.50;99.90;;;;;;1027286;28;20027;-68
2022/09/05 00:05:35;;;;;;;2.65;2.30;;;23.50;99.90;;;;;;1028885;28;20023;-69
2022/09/05 00:06:11;;;;;;;5.55;2.58;;;23.50;99.90;;;;;;1029945;28;20072;-69
2022/09/05 00:06:52;;;;;;;2.85;2.33;;;23.50;99.90;;;;;;1030136;28;20011;-69
2022/09/05 00:07:54;;;;;;;3.00;2.50;;;23.40;99.90;;;;;;1030659;28;20022;-70
2022/09/05 00:08:31;;;;;;;2.78;2.38;;;23.40;99.90;;;;;;1034702;28;20080;-70
2022/09/05 00:09:37;;;;;;;3.28;2.05;;;23.40;99.90;;;;;;1034483;28;20283;-68
2022/09/05 00:10:30;;;;;;;2.84;2.10;;;23.40;99.90;;;;;;1026005;28;20035;-70
2022/09/05 00:11:07;;;;;;;2.95;2.60;;;23.40;99.90;;;;;;1026778;28;20034;-68
2022/09/05 00:11:44;;;;;;;3.08;2.47;;;23.40;99.90;;;;;;1028276;28;20050;-69
2022/09/05 00:12:17;;;;;;;2.50;1.92;;;23.40;99.90;;;;;;1030673;28;20770;-68
2022/09/05 00:12:48;;;;;;;2.60;2.22;;;23.40;99.90;;;;;;1030658;28;20019;-70
2022/09/05 00:13:24;;;;;;;2.65;2.05;;;23.40;99.90;;;;;;1030139;28;20758;-70
2022/09/05 00:14:12;;;;;;;2.47;2.03;;;23.40;99.90;;;;;;1029148;28;20559;-70
2022/09/05 00:15:07;;;;;;;3.78;2.40;;;23.40;99.90;;;;;;1026322;28;20134;-69
2022/09/05 00:16:02;;;;;;;3.97;2.47;;;23.40;99.90;;;;;;1022203;29;20042;-71
2022/09/05 00:16:42;;;;;;;5.32;2.10;;;23.40;99.90;;;;;;1024660;28;20601;-69
2022/09/05 00:17:41;;;;;;;3.55;2.17;;;23.40;99.90;;;;;;1030308;28;20014;-69
2022/09/05 00:18:23;;;;;;;2.97;2.20;;;23.40;99.90;;;;;;1030779;28;20022;-70
2022/09/05 00:19:05;;;;;;;2.70;2.03;;;23.40;99.90;;;;;;1030706;28;20117;-71
2022/09/05 00:19:46;;;;;;;3.10;2.53;;;23.40;99.90;;;;;;1030567;28;20014;-70
2022/09/05 00:20:35;;;;;;;2.15;1.75;;;23.40;99.90;;;;;;1030274;28;20554;-70
2022/09/05 00:21:22;;;;;;;2.13;1.80;;;23.40;99.90;;;;;;1030161;28;20550;-69
2022/09/05 00:22:11;;;;;;;;;;;23.40;99.90;;;;;;1026636;28;20023;-70
2022/09/05 00:22:57;;;;;;;3.10;2.13;;;23.40;99.90;;;;;;1026954;28;19910;-69
2022/09/05 00:24:01;;;;;;;3.05;2.33;;;23.40;99.90;;;;;;1030527;28;20102;-70
2022/09/05 00:25:10;;;;;;;3.35;2.25;;;23.40;99.90;;;;;;1030770;28;20010;-70
2022/09/05 00:25:55;;;;;;;2.72;2.25;;;23.40;99.90;;;;;;1026080;28;20019;-70
2022/09/05 00:26:33;;;;;;;2.90;1.80;;;23.40;99.90;;;;;;1030929;28;20021;-69
2022/09/05 00:27:33;;;;;;;3.05;2.22;;;23.40;99.90;;;;;;1030266;28;20010;-70
2022/09/05 00:28:12;;;;;;;2.35;2.13;;;23.40;99.90;;;;;;1030811;28;20497;-70
2022/09/05 00:28:48;;;;;;;2.90;2.58;;;23.30;99.90;;;;;;1030990;28;20006;-69
2022/09/05 00:29:29;;;;;;;3.95;2.33;;;23.40;99.90;;;;;;1030351;28;20014;-70
2022/09/05 00:30:28;;;;;;;3.08;2.40;;;23.30;99.90;;;;;;1030211;28;20045;-69
2022/09/05 00:31:38;;;;;;;3.13;2.40;;;23.40;99.90;;;;;;1028796;28;20042;-70
2022/09/05 00:32:24;;;;;;;2.70;2.10;;;23.40;99.90;;;;;;1030486;28;20027;-70
2022/09/05 00:33:30;;;;;;;2.80;2.13;;;23.30;99.90;;;;;;1030671;28;20046;-69
2022/09/05 00:34:38;;;;;;;2.30;2.08;;;23.30;99.90;;;;;;1028599;28;20030;-69
2022/09/05 00:35:32;;;;;;;3.90;2.47;;;23.30;99.90;;;;;;1029455;28;20050;-68
2022/09/05 00:36:25;;;;;;;2.42;2.10;;;23.30;99.90;;;;;;1026991;28;20029;-69
2022/09/05 00:36:55;;;;;;;2.40;2.10;;;23.30;99.90;;;;;;1026932;28;20023;-69
2022/09/05 00:37:56;;;;;;;3.00;2.70;;;23.30;99.90;;;;;;1030471;28;20015;-67
2022/09/05 00:38:27;;;;;;;3.25;2.33;;;23.30;99.90;;;;;;1026216;28;20615;-67
2022/09/05 00:39:11;;;;;;;2.45;2.20;;;23.30;99.90;;;;;;1030731;28;20007;-69
2022/09/05 00:39:42;;;;;;;5.15;2.33;;;23.30;99.90;;;;;;1030716;28;20539;-69
2022/09/05 00:40:12;;;;;;;2.87;2.20;;;23.20;99.90;;;;;;1031039;28;20520;-70
2022/09/05 00:41:01;;;;;;;5.10;2.60;;;23.30;99.90;;;;;;1030439;28;20021;-72
2022/09/05 00:41:32;;;;;;;2.95;2.40;;;23.20;99.90;;;;;;1030695;28;20037;-70
2022/09/05 00:42:14;;;;;;;2.75;2.08;;;23.30;99.90;;;;;;1030925;28;20018;-70
2022/09/05 00:42:48;;;;;;;2.90;2.40;;;23.30;99.90;;;;;;1030710;28;20011;-70
2022/09/05 00:43:27;;;;;;;2.97;2.03;;;23.30;99.90;;;;;;1030823;28;20010;-71
2022/09/05 00:44:00;;;;;;;2.60;2.40;;;23.20;99.90;;;;;;1030552;28;20014;-70
2022/09/05 00:44:33;;;;;;;3.10;2.33;;;23.20;99.90;;;;;;1031045;28;20236;-70
2022/09/05 00:45:06;;;;;;;3.05;2.28;;;23.20;99.90;;;;;;1030799;28;20171;-71
2022/09/05 00:45:46;;;;;;;2.50;2.30;;;23.20;99.90;;;;;;1030848;28;20113;-70
2022/09/05 00:46:22;;;;;;;2.65;2.17;;;23.20;99.90;;;;;;1030684;28;20018;-68
2022/09/05 00:47:03;;;;;;;2.88;2.40;;;23.20;99.90;;;;;;1030801;28;20254;-69
2022/09/05 00:47:53;;;;;;;3.40;2.50;;;23.20;99.90;;;;;;1030870;28;20026;-71
2022/09/05 00:48:43;;;;;;;3.50;2.50;;;23.20;99.90;;;;;;1030886;28;20110;-69
2022/09/05 00:49:20;;;;;;;2.90;2.50;;;23.20;99.90;;;;;;1030418;28;20022;-70
2022/09/05 00:49:58;;;;;;;2.53;1.88;;;23.20;99.90;;;;;;1030344;28;20497;-70
2022/09/05 00:50:40;;;;;;;3.20;2.28;;;23.20;99.90;;;;;;1026458;28;20125;-70
2022/09/05 00:51:41;;;;;;;2.40;2.20;;;23.20;99.90;;;;;;1026633;28;20029;-70
2022/09/05 00:52:14;;;;;;;2.15;1.83;;;23.20;99.90;;;;;;1030520;28;20022;-69
2022/09/05 00:52:52;;;;;;;3.35;2.35;;;23.20;99.90;;;;;;1030671;28;20026;-69
2022/09/05 00:54:01;;;;;;;1.92;1.63;;;23.20;99.90;;;;;;1030698;28;20094;-69
2022/09/05 00:54:58;;;;;;;2.17;1.92;;;23.20;99.90;;;;;;1029557;28;20030;-70
2022/09/05 00:55:54;;;;;;;2.55;2.22;;;23.20;99.90;;;;;;1030821;28;20029;-70
2022/09/05 00:56:58;;;;;;;3.58;2.58;;;23.20;99.90;;;;;;1030880;28;20030;-69
2022/09/05 00:57:38;;;;;;;2.53;2.10;;;23.10;99.90;;;;;;1030375;28;20114;-70
2022/09/05 00:58:36;;;;;;;2.72;2.30;;;23.10;99.90;;;;;;1030907;28;20424;-69
2022/09/05 00:59:44;;;;;;;3.17;2.25;;;23.20;99.90;;;;;;1030730;28;20030;-71
2022/09/05 01:00:53;;;;;;;2.65;2.28;;;23.20;99.90;;;;;;1030936;28;20027;-69
2022/09/05 01:01:40;;;;;;;2.75;2.20;;;23.20;99.90;;;;;;1027128;28;20029;-69
2022/09/05 01:02:29;;;;;;;2.67;2.47;;;23.20;99.90;;;;;;1027032;28;20038;-69
2022/09/05 01:03:18;;;;;;;2.03;1.80;;;23.20;99.90;;;;;;1030189;28;20045;-69
2022/09/05 01:04:01;;;;;;;3.17;2.47;;;23.20;99.90;;;;;;1030588;28;20484;-69
2022/09/05 01:04:43;;;;;;;3.28;2.00;;;23.20;99.90;;;;;;1033426;28;20105;-69
2022/09/05 01:05:50;;;;;;;2.03;1.88;;;23.20;99.90;;;;;;1030410;28;20138;-69
2022/09/05 01:07:11;;;;;;;3.13;2.08;;;23.10;99.90;;;;;;1026483;28;20029;-68
2022/09/05 01:08:15;;;;;;;2.53;2.28;;;23.10;99.90;;;;;;1026171;28;20069;-69
2022/09/05 01:09:07;;;;;;;2.97;2.00;;;23.10;99.90;;;;;;1030359;28;20022;-70
2022/09/05 01:10:06;;;;;;;2.92;2.30;;;23.10;99.90;;;;;;1030547;28;20081;-69
2022/09/05 01:10:45;;;;;;;2.55;2.08;;;23.10;99.90;;;;;;1030896;28;20018;-70
2022/09/05 01:11:41;;;;;;;2.42;2.00;;;23.10;99.90;;;;;;1030764;28;20033;-70
2022/09/05 01:12:17;;;;;;;2.42;2.22;;;23.10;99.90;;;;;;1030633;28;20084;-69
2022/09/05 01:13:37;;;;;;;4.68;2.35;;;23.10;99.90;;;;;;1030917;28;20060;-70
2022/09/05 01:14:40;;;;;;;2.17;1.95;;;23.00;99.90;;;;;;1028816;28;20122;-70
2022/09/05 01:15:42;;;;;;;3.20;2.50;;;23.10;99.90;;;;;;1029408;28;20472;-70
2022/09/05 01:16:22;;;;;;;3.03;2.47;;;23.10;99.90;;;;;;1026316;28;20107;-69
2022/09/05 01:17:36;;;;;;;3.45;2.22;;;23.10;99.90;;;;;;1029514;28;20030;-69
2022/09/05 01:18:45;;;;;;;3.50;2.40;;;23.10;99.90;;;;;;1030684;28;20019;-68
2022/09/05 01:19:40;;;;;;;2.78;2.30;;;23.10;99.90;;;;;;1027048;28;20503;-68
2022/09/05 01:20:54;;;;;;;3.08;2.17;;;23.00;99.90;;;;;;1028142;28;20092;-69
2022/09/05 01:21:49;;;;;;;2.85;2.45;;;23.00;99.90;;;;;;1029264;28;20694;-69
2022/09/05 01:22:37;;;;;;;3.05;2.63;;;23.00;99.90;;;;;;1030823;28;20042;-69
2022/09/05 01:23:42;;;;;;;2.78;2.53;;;23.00;99.90;;;;;;1030792;28;20083;-70
2022/09/05 01:24:36;;;;;;;2.60;2.35;;;23.00;99.90;;;;;;1030802;28;20027;-70
2022/09/05 01:25:33;;;;;;;2.30;2.10;;;23.00;99.90;;;;;;1030097;28;20096;-70
2022/09/05 01:26:29;;;;;;;4.72;2.53;;;23.00;99.90;;;;;;1030225;28;20089;-70
2022/09/05 01:27:18;;;;;;;2.90;2.13;;;23.00;99.90;;;;;;1032364;28;20068;-69
2022/09/05 01:27:57;;;;;;;3.50;2.10;;;23.00;99.90;;;;;;1034422;28;20037;-69
2022/09/05 01:28:39;;;;;;;2.63;2.30;;;23.00;99.90;;;;;;1034613;28;20092;-69
2022/09/05 01:29:52;;;;;;;2.53;2.28;;;23.00;99.90;;;;;;1030055;28;20390;-69
2022/09/05 01:30:25;;;;;;;2.60;2.33;;;22.90;99.90;;;;;;1023723;28;20039;-70
2022/09/05 01:31:14;;;;;;;2.83;2.20;;;22.90;99.90;;;;;;1027939;28;20331;-71
2022/09/05 01:32:14;;;;;;;2.92;2.58;;;22.90;99.90;;;;;;1031218;28;20046;-70
2022/09/05 01:33:09;;;;;;;3.53;2.33;;;22.90;99.90;;;;;;1027722;28;20054;-70
2022/09/05 01:34:03;;;;;;;3.42;2.35;;;22.90;99.90;;;;;;1028126;28;20025;-70
2022/09/05 01:35:16;;;;;;;2.92;2.03;;;22.90;99.90;;;;;;1031216;28;20080;-69
2022/09/05 01:36:15;;;;;;;3.58;2.38;;;22.90;99.90;;;;;;1027060;28;20037;-70
2022/09/05 01:37:16;;;;;;;2.60;2.40;;;22.90;99.90;;;;;;1034926;28;20038;-68
2022/09/05 01:38:05;;;;;;;2.35;2.10;;;22.90;99.90;;;;;;1029068;28;20042;-70
2022/09/05 01:38:57;;;;;;;2.28;2.00;;;22.90;99.90;;;;;;1027568;28;20125;-69
2022/09/05 01:40:06;;;;;;;2.58;2.08;;;22.90;99.90;;;;;;1026944;28;20031;-69
2022/09/05 01:40:57;;;;;;;2.90;2.28;;;22.90;99.90;;;;;;1028974;28;20134;-69
2022/09/05 01:41:39;;;;;;;2.47;2.15;;;22.90;99.90;;;;;;1031255;28;20026;-68
2022/09/05 01:42:40;;;;;;;3.22;2.65;;;22.90;99.90;;;;;;1031701;28;20078;-70
2022/09/05 01:43:37;;;;;;;3.08;2.33;;;22.90;99.90;;;;;;1027623;28;20034;-69
2022/09/05 01:44:31;;;;;;;;;;;22.90;99.90;;;;;;1030131;28;20034;-69
2022/09/05 01:45:20;;;;;;;4.30;2.50;;;22.90;99.90;;;;;;1027269;28;19903;-69
2022/09/05 01:46:15;;;;;;;4.43;2.75;;;22.90;99.90;;;;;;1030127;28;20050;-69
2022/09/05 01:47:03;;;;;;;3.15;2.40;;;22.90;99.90;;;;;;1031456;28;20492;-67
2022/09/05 01:48:23;;;;;;;2.20;2.00;;;22.90;99.90;;;;;;1031790;28;20022;-68
2022/09/05 01:49:07;;;;;;;5.57;2.40;;;22.90;99.90;;;;;;1031054;28;20042;-69
2022/09/05 01:50:19;;;;;;;4.97;2.38;;;22.90;99.90;;;;;;1030351;28;20038;-69
2022/09/05 01:50:56;;;;;;;2.35;2.15;;;22.90;99.90;;;;;;1031169;28;20023;-69
2022/09/05 01:51:47;;;;;;;2.85;2.42;;;22.90;99.90;;;;;;1031299;28;20024;-71
2022/09/05 01:52:45;;;;;;;2.80;2.58;;;22.90;99.90;;;;;;1031343;28;20018;-69
2022/09/05 01:53:32;;;;;;;3.97;2.40;;;22.80;99.90;;;;;;1031419;28;20731;-68
2022/09/05 01:54:16;;;;;;;3.15;2.75;;;22.90;99.90;;;;;;1030647;28;20085;-67
2022/09/05 01:54:50;;;;;;;3.33;2.53;;;22.80;99.90;;;;;;1029262;28;20025;-71
2022/09/05 01:55:51;;;;;;;2.75;2.42;;;22.80;99.90;;;;;;1029975;28;20037;-69
2022/09/05 01:56:43;;;;;;;2.53;2.33;;;22.80;99.90;;;;;;1027908;28;20094;-69
2022/09/05 01:57:49;;;;;;;4.18;2.47;;;22.80;99.90;;;;;;1031045;28;20157;-70
2022/09/05 01:58:41;;;;;;;2.90;2.50;;;22.80;99.90;;;;;;1031496;28;20026;-70
2022/09/05 01:59:24;;;;;;;2.78;2.47;;;22.80;99.90;;;;;;1031526;28;20019;-70
2022/09/05 02:00:03;;;;;;;3.30;2.30;;;22.80;99.90;;;;;;1031211;28;20026;-70
2022/09/05 02:00:43;;;;;;;3.25;2.40;;;22.80;99.90;;;;;;1031302;28;20017;-70
2022/09/05 02:01:22;;;;;;;3.40;2.50;;;22.80;99.90;;;;;;1031333;28;20029;-70
2022/09/05 02:02:17;;;;;;;2.83;2.35;;;22.80;99.90;;;;;;1031373;28;20041;-70
2022/09/05 02:03:12;;;;;;;2.90;2.58;;;22.80;99.90;;;;;;1031405;28;20103;-70
2022/09/05 02:04:18;;;;;;;3.95;3.05;;;22.80;99.90;;;;;;1027233;28;20142;-69
2022/09/05 02:05:04;;;;;;;2.70;2.50;;;22.80;99.90;;;;;;1031487;28;20851;-70
2022/09/05 02:05:47;;;;;;;3.35;3.03;;;22.70;99.90;;;;;;1031393;28;20023;-70
2022/09/05 02:06:26;;;;;;;2.30;2.03;;;22.70;99.90;;;;;;1035190;28;20167;-71
2022/09/05 02:07:02;;;;;;;3.75;2.88;;;22.70;99.90;;;;;;1034964;28;20416;-68
2022/09/05 02:08:07;;;;;;;3.17;2.85;;;22.70;99.90;;;;;;1035099;28;20076;-69
2022/09/05 02:09:23;;;;;;;3.50;2.47;;;22.70;99.90;;;;;;1026822;28;20082;-72
2022/09/05 02:10:15;;;;;;;3.95;2.53;;;22.70;99.90;;;;;;1022730;29;20486;-68
2022/09/05 02:11:02;;;;;;;2.50;2.30;;;22.70;99.90;;;;;;1028139;28;20039;-69
2022/09/05 02:11:56;;;;;;;2.67;1.95;;;22.70;99.90;;;;;;1031901;28;20054;-68
2022/09/05 02:12:39;;;;;;;3.40;2.75;;;22.70;99.90;;;;;;1024588;28;20023;-68
2022/09/05 02:13:28;;;;;;;2.53;2.15;;;22.70;99.90;;;;;;1027185;28;20021;-70
2022/09/05 02:14:26;;;;;;;2.92;2.10;;;22.70;99.90;;;;;;1031359;28;20065;-69
2022/09/05 02:15:02;;;;;;;2.63;2.40;;;22.70;99.90;;;;;;1031531;28;20026;-68
2022/09/05 02:15:38;;;;;;;2.50;2.28;;;22.60;99.90;;;;;;1031462;28;20029;-69
2022/09/05 02:16:24;;;;;;;3.03;2.60;;;22.70;99.90;;;;;;1027436;28;20473;-70
2022/09/05 02:17:07;;;;;;;2.90;2.30;;;22.70;99.90;;;;;;1027606;28;20036;-71
2022/09/05 02:17:40;;;;;;;3.58;2.40;;;22.70;99.90;;;;;;1029525;28;20018;-68
2022/09/05 02:18:20;;;;;;;2.28;2.08;;;22.70;99.90;;;;;;1031520;28;20440;-70
2022/09/05 02:19:22;;;;;;;2.88;2.58;;;22.60;99.90;;;;;;1031608;28;20022;-66
2022/09/05 02:20:06;;;;;;;2.65;2.30;;;22.70;99.90;;;;;;1030839;28;20046;-69
2022/09/05 02:20:40;;;;;;;2.42;2.03;;;22.70;99.90;;;;;;1031415;28;20026;-69
2022/09/05 02:21:36;;;;;;;2.40;2.20;;;22.60;99.90;;;;;;1031368;28;20106;-68
2022/09/05 02:22:10;;;;;;;2.78;2.13;;;22.60;99.90;;;;;;1031541;28;20022;-69
2022/09/05 02:22:45;;;;;;;3.00;2.63;;;22.60;99.90;;;;;;1034709;28;20061;-69
2022/09/05 02:23:18;;;;;;;5.97;2.70;;;22.60;99.90;;;;;;1034974;28;20033;-69
2022/09/05 02:24:05;;;;;;;2.30;2.08;;;22.60;99.90;;;;;;1030865;28;20030;-69
2022/09/05 02:24:43;;;;;;;3.20;2.72;;;22.60;99.90;;;;;;1027715;28;20081;-69
2022/09/05 02:25:19;;;;;;;3.47;2.70;;;22.60;99.90;;;;;;1030893;28;20392;-69
2022/09/05 02:26:16;;;;;;;3.03;2.72;;;22.60;99.90;;;;;;1031350;28;20027;-70
2022/09/05 02:27:03;;;;;;;3.33;2.50;;;22.60;99.90;;;;;;1027497;28;20023;-69
2022/09/05 02:27:39;;;;;;;5.00;2.80;;;22.60;99.90;;;;;;1027392;28;20488;-69
2022/09/05 02:28:19;;;;;;;2.78;2.55;;;22.60;99.90;;;;;;1031440;28;20015;-69
2022/09/05 02:29:00;;;;;;;2.60;2.20;;;22.60;99.90;;;;;;1034955;28;20025;-69
2022/09/05 02:30:08;;;;;;;3.05;2.75;;;22.60;99.90;;;;;;1034924;28;20548;-69
2022/09/05 02:30:46;;;;;;;2.65;2.25;;;22.60;99.90;;;;;;1029083;28;20022;-69
2022/09/05 02:31:23;;;;;;;;;;;22.60;99.90;;;;;;1029904;28;20058;-70
2022/09/05 02:31:56;;;;;;;;;;;22.50;99.90;;;;;;1031878;28;19909;-69
2022/09/05 02:32:36;;;;;;;3.08;2.50;;;22.60;99.90;;;;;;1031683;28;19910;-69
2022/09/05 02:33:25;;;;;;;3.55;2.58;;;22.60;99.90;;;;;;1031159;28;20041;-69
2022/09/05 02:34:08;;;;;;;3.08;2.50;;;22.60;99.90;;;;;;1031448;28;20033;-70
2022/09/05 02:34:56;;;;;;;3.60;2.47;;;22.60;99.90;;;;;;1031680;28;20112;-69
2022/09/05 02:35:51;;;;;;;2.97;2.60;;;22.60;99.90;;;;;;1031435;28;20436;-69
2022/09/05 02:36:47;;;;;;;4.32;2.55;;;22.60;99.90;;;;;;1029124;28;20117;-69
2022/09/05 02:37:26;;;;;;;4.32;3.15;;;22.50;99.90;;;;;;1027518;28;20046;-69
2022/09/05 02:38:10;;;;;;;3.58;2.30;;;22.60;99.90;;;;;;1028389;28;20026;-68
2022/09/05 02:38:53;;;;;;;3.13;2.53;;;22.50;99.90;;;;;;1031325;28;20113;-70
2022/09/05 02:39:46;;;;;;;3.45;2.50;;;22.50;99.90;;;;;;1031247;28;20065;-68
2022/09/05 02:40:21;;;;;;;3.22;2.92;;;22.50;99.90;;;;;;1027320;28;20023;-71
2022/09/05 02:41:01;;;;;;;3.83;2.67;;;22.50;99.90;;;;;;1027333;28;20134;-68
2022/09/05 02:41:39;;;;;;;4.70;2.60;;;22.50;99.90;;;;;;1029388;28;20019;-69
2022/09/05 02:42:23;;;;;;;4.00;2.55;;;22.50;99.90;;;;;;1035265;28;20102;-69
2022/09/05 02:42:57;;;;;;;3.70;2.38;;;22.50;99.90;;;;;;1034745;28;20029;-70
2022/09/05 02:43:52;;;;;;;3.58;3.13;;;22.50;99.90;;;;;;1034350;28;20010;-69
2022/09/05 02:44:35;;;;;;;3.40;2.50;;;22.50;99.90;;;;;;1035008;28;20061;-68
2022/09/05 02:45:40;;;;;;;3.13;2.63;;;22.50;99.90;;;;;;1034884;28;20826;-69
2022/09/05 02:46:27;;;;;;;2.80;2.47;;;22.50;99.90;;;;;;1032693;28;20648;-69
2022/09/05 02:47:21;;;;;;;3.97;2.40;;;22.50;99.90;;;;;;1027080;28;20085;-70
2022/09/05 02:48:03;;;;;;;3.13;2.83;;;22.50;99.90;;;;;;1027222;28;20032;-69
2022/09/05 02:49:03;;;;;;;2.95;2.45;;;22.50;99.90;;;;;;1027300;28;20034;-69
2022/09/05 02:50:05;;;;;;;3.58;3.05;;;22.50;99.90;;;;;;1027512;28;20023;-69
2022/09/05 02:50:44;;;;;;;2.58;2.13;;;22.50;99.90;;;;;;1027602;28;20733;-69
2022/09/05 02:51:36;;;;;;;2.83;2.40;;;22.50;99.90;;;;;;1027177;28;20489;-69
2022/09/05 02:52:09;;;;;;;4.97;2.58;;;22.50;99.90;;;;;;1027196;28;20363;-68
2022/09/05 02:52:42;;;;;;;3.20;2.90;;;22.50;99.90;;;;;;1027520;28;20073;-70
2022/09/05 02:53:17;;;;;;;2.50;2.05;;;22.50;99.90;;;;;;1027497;28;20029;-70
2022/09/05 02:54:11;;;;;;;2.53;2.17;;;22.50;99.90;;;;;;1030994;28;20616;-70
2022/09/05 02:54:46;;;;;;;3.00;2.70;;;22.50;99.90;;;;;;1031025;28;20069;-69
2022/09/05 02:55:35;;;;;;;2.08;1.88;;;22.50;99.90;;;;;;1031117;28;20032;-67
2022/09/05 02:56:16;;;;;;;2.80;2.47;;;22.50;99.90;;;;;;1031165;28;20100;-70
2022/09/05 02:57:05;;;;;;;3.53;2.50;;;22.50;99.90;;;;;;1031311;28;20042;-69
2022/09/05 02:57:52;;;;;;;3.35;2.72;;;22.50;99.90;;;;;;1031210;28;20045;-69
2022/09/05 02:58:29;;;;;;;3.67;2.72;;;22.50;99.90;;;;;;1030707;28;20034;-69
2022/09/05 02:59:27;;;;;;;4.05;2.40;;;22.50;99.90;;;;;;1031184;28;20029;-68
2022/09/05 03:00:18;;;;;;;3.58;2.22;;;22.50;99.90;;;;;;1027349;28;20085;-69
2022/09/05 03:01:10;;;;;;;2.47;2.28;;;22.50;99.90;;;;;;1031224;28;20027;-69
2022/09/05 03:02:11;;;;;;;4.13;2.47;;;22.50;99.90;;;;;;1031313;28;20022;-68
2022/09/05 03:02:52;;;;;;;3.35;2.28;;;22.50;99.90;;;;;;1034811;28;20029;-69
2022/09/05 03:03:35;;;;;;;3.20;2.88;;;22.50;99.90;;;;;;1034683;28;20133;-69
2022/09/05 03:04:23;;;;;;;2.40;2.20;;;22.50;99.90;;;;;;1031180;28;20015;-69
2022/09/05 03:05:52;;;;;;;4.28;2.42;;;22.50;99.90;;;;;;1026812;28;20033;-68
2022/09/05 03:07:04;;;;;;;2.63;2.42;;;22.40;99.90;;;;;;1017162;28;20036;-69
2022/09/05 03:07:50;;;;;;;2.70;2.50;;;22.40;99.90;;;;;;1030743;28;20685;-69
2022/09/05 03:08:55;;;;;;;2.60;2.08;;;22.40;99.90;;;;;;1032855;28;20022;-69
2022/09/05 03:09:54;;;;;;;2.95;2.65;;;22.40;99.90;;;;;;1034752;28;20624;-68
2022/09/05 03:10:57;;;;;;;3.08;2.53;;;22.40;99.90;;;;;;1034709;28;20075;-70
2022/09/05 03:11:48;;;;;;;3.30;2.42;;;22.40;99.90;;;;;;1030847;28;20164;-70
2022/09/05 03:12:54;;;;;;;3.00;2.70;;;22.40;99.90;;;;;;1030250;28;20030;-69
2022/09/05 03:13:45;;;;;;;3.33;2.55;;;22.40;99.90;;;;;;1031141;28;20205;-68
2022/09/05 03:14:47;;;;;;;2.90;2.70;;;22.40;99.90;;;;;;1031266;28;20006;-69
2022/09/05 03:15:54;;;;;;;3.38;3.00;;;22.40;99.90;;;;;;1034721;28;20022;-70
2022/09/05 03:16:56;;;;;;;2.45;2.25;;;22.40;99.90;;;;;;1030815;28;20056;-68
2022/09/05 03:17:52;;;;;;;3.15;2.75;;;22.40;99.90;;;;;;1030308;28;20068;-69
2022/09/05 03:18:39;;;;;;;3.63;3.30;;;22.40;99.90;;;;;;1031220;28;20018;-70
2022/09/05 03:19:28;;;;;;;;;;;22.40;99.90;;;;;;1031600;28;20057;-70
2022/09/05 03:20:40;;;;;;;3.33;2.88;;;22.40;99.90;;;;;;1034859;28;20387;-71
2022/09/05 03:21:32;;;;;;;3.17;2.88;;;22.40;99.90;;;;;;1034592;28;20022;-69
2022/09/05 03:22:27;;;;;;;2.88;2.60;;;22.40;99.90;;;;;;1031165;28;20013;-69
2022/09/05 03:23:34;;;;;;;3.88;2.50;;;22.30;99.90;;;;;;1027157;28;20107;-69
2022/09/05 03:24:45;;;;;;;3.83;2.67;;;22.40;99.90;;;;;;1029017;28;20073;-68
2022/09/05 03:25:27;;;;;;;4.05;2.92;;;22.30;99.90;;;;;;1031433;28;20337;-70
2022/09/05 03:26:19;;;;;;;5.10;3.22;;;22.30;99.90;;;;;;1031103;28;20034;-70
2022/09/05 03:27:10;;;;;;;3.63;3.20;;;22.30;99.90;;;;;;1034680;28;20121;-69
2022/09/05 03:27:53;;;;;;;3.33;2.70;;;22.30;99.90;;;;;;1034693;28;20214;-70
2022/09/05 03:28:49;;;;;;;3.33;3.03;;;22.30;99.90;;;;;;1034807;28;20054;-70
2022/09/05 03:29:39;;;;;;;;;;;22.30;99.90;;;;;;1031276;28;20084;-70
2022/09/05 03:30:15;;;;;;;3.00;2.70;;;22.30;99.90;;;;;;1031257;28;20612;-70
2022/09/05 03:31:31;;;;;;;2.85;2.63;;;22.30;99.90;;;;;;1030855;28;20022;-69
2022/09/05 03:32:13;;;;;;;4.32;3.15;;;22.30;99.90;;;;;;1034339;28;20101;-70
2022/09/05 03:33:14;;;;;;;3.20;2.80;;;22.30;99.90;;;;;;1033285;28;20167;-68
2022/09/05 03:33:56;;;;;;;2.92;2.63;;;22.30;99.90;;;;;;1031125;28;20053;-69
2022/09/05 03:35:17;;;;;;;3.75;2.78;;;22.30;99.90;;;;;;1031135;28;20026;-68
2022/09/05 03:36:08;;;;;;;3.40;3.10;;;22.30;99.90;;;;;;1031209;28;20026;-69
2022/09/05 03:36:57;;;;;;;3.42;2.88;;;22.30;99.90;;;;;;1031127;28;20018;-70
2022/09/05 03:37:45;;;;;;;3.55;2.50;;;22.30;99.90;;;;;;1031012;28;20031;-69
2022/09/05 03:38:40;;;;;;;4.50;3.30;;;22.30;99.90;;;;;;1031088;28;20025;-69
2022/09/05 03:39:25;;;;;;;5.40;3.33;;;22.30;99.90;;;;;;1030932;28;20032;-70
2022/09/05 03:40:28;;;;;;;4.00;2.97;;;22.30;99.90;;;;;;1031488;28;20109;-70
2022/09/05 03:41:26;;;;;;;3.97;2.60;;;22.30;99.90;;;;;;1030504;28;20018;-70
2022/09/05 03:42:20;;;;;;;3.78;2.75;;;22.30;99.90;;;;;;1030690;28;20026;-69
2022/09/05 03:43:09;;;;;;;3.42;3.13;;;22.30;99.90;;;;;;1030957;28;20049;-69
2022/09/05 03:44:12;;;;;;;3.25;2.80;;;22.30;99.90;;;;;;1030768;28;20081;-69
2022/09/05 03:45:03;;;;;;;5.22;3.15;;;22.30;99.90;;;;;;1030737;28;20014;-68
2022/09/05 03:45:51;;;;;;;2.97;2.67;;;22.20;99.90;;;;;;1034483;28;20018;-70
2022/09/05 03:46:48;;;;;;;3.18;2.62;;;22.20;99.90;;;;;;1034587;28;20037;-68
2022/09/05 03:47:53;;;;;;;3.78;3.10;;;22.20;99.90;;;;;;1033018;28;20018;-70
2022/09/05 03:48:33;;;;;;;4.07;3.30;;;22.20;99.90;;;;;;1026903;28;20015;-70
2022/09/05 03:49:14;;;;;;;3.08;2.80;;;22.20;99.90;;;;;;1030298;28;20026;-70
2022/09/05 03:50:03;;;;;;;3.75;3.35;;;22.20;99.90;;;;;;1033349;28;20018;-70
2022/09/05 03:51:00;;;;;;;2.80;2.38;;;22.20;99.90;;;;;;1034645;28;20742;-68
2022/09/05 03:51:57;;;;;;;3.85;2.85;;;22.20;99.90;;;;;;1034046;28;20030;-69
2022/09/05 03:52:53;;;;;;;3.10;2.80;;;22.20;99.90;;;;;;1032014;28;20041;-67
2022/09/05 03:54:01;;;;;;;3.80;2.85;;;22.20;99.90;;;;;;1030811;28;20029;-69
2022/09/05 03:55:08;;;;;;;3.28;2.97;;;22.20;99.90;;;;;;1027150;28;20037;-69
2022/09/05 03:55:59;;;;;;;4.20;3.28;;;22.20;99.90;;;;;;1031100;28;20543;-68
2022/09/05 03:56:57;;;;;;;3.38;3.05;;;22.20;99.90;;;;;;1030768;28;20026;-69
2022/09/05 03:57:53;;;;;;;3.17;2.88;;;22.20;99.90;;;;;;1030623;28;20171;-68
2022/09/05 03:58:41;;;;;;;4.15;3.08;;;22.20;99.90;;;;;;1034489;28;20373;-69
2022/09/05 03:59:33;;;;;;;2.95;2.47;;;22.20;99.90;;;;;;1034701;28;20777;-71
2022/09/05 04:00:23;;;;;;;4.35;3.10;;;22.10;99.90;;;;;;1033709;28;20026;-71
2022/09/05 04:01:14;;;;;;;3.33;2.95;;;22.10;99.90;;;;;;1031248;28;20029;-70
2022/09/05 04:01:49;;;;;;;3.03;2.70;;;22.10;99.90;;;;;;1030736;28;20484;-70
2022/09/05 04:02:27;;;;;;;3.70;3.35;;;22.10;99.90;;;;;;1030894;28;20026;-70
2022/09/05 04:02:57;;;;;;;3.60;2.88;;;22.10;99.90;;;;;;1030464;28;20064;-70
2022/09/05 04:03:48;;;;;;;3.30;2.90;;;22.10;99.90;;;;;;1030325;28;20025;-69
2022/09/05 04:04:21;;;;;;;3.92;3.53;;;22.10;99.90;;;;;;1030692;28;20010;-70
2022/09/05 04:05:01;;;;;;;4.57;2.80;;;22.10;99.90;;;;;;1030842;28;20089;-70
2022/09/05 04:05:38;;;;;;;4.43;3.22;;;22.10;99.90;;;;;;1030894;28;20094;-68
2022/09/05 04:06:30;;;;;;;3.90;2.80;;;22.10;99.90;;;;;;1031209;28;20189;-69
2022/09/05 04:07:07;;;;;;;4.47;3.20;;;22.10;99.90;;;;;;1034499;28;20076;-69
2022/09/05 04:07:42;;;;;;;4.18;2.63;;;22.10;99.90;;;;;;1034638;28;20016;-68
2022/09/05 04:08:49;;;;;;;3.67;3.08;;;22.10;99.90;;;;;;1034979;28;20030;-70
2022/09/05 04:09:36;;;;;;;3.72;2.70;;;22.10;99.90;;;;;;1027206;28;20029;-70
2022/09/05 04:10:25;;;;;;;2.90;2.60;;;22.10;99.90;;;;;;1031033;28;20688;-69
2022/09/05 04:11:26;;;;;;;2.92;2.58;;;22.10;99.90;;;;;;1026858;28;20019;-70
2022/09/05 04:12:10;;;;;;;2.92;2.63;;;22.10;99.90;;;;;;1026762;28;20581;-69
2022/09/05 04:12:51;;;;;;;4.93;3.00;;;22.10;99.90;;;;;;1034652;28;20017;-70
2022/09/05 04:13:30;;;;;;;3.67;2.75;;;22.10;99.90;;;;;;1034722;28;20089;-70
2022/09/05 04:14:43;;;;;;;2.80;2.40;;;22.10;99.90;;;;;;1034326;28;20014;-70
2022/09/05 04:15:21;;;;;;;2.95;2.60;;;22.10;99.90;;;;;;1022185;28;20061;-70
2022/09/05 04:16:12;;;;;;;2.70;2.50;;;22.10;99.90;;;;;;1028782;28;20118;-70
2022/09/05 04:16:55;;;;;;;4.60;3.33;;;22.00;99.90;;;;;;1030985;28;20118;-69
2022/09/05 04:17:46;;;;;;;3.00;2.58;;;22.00;99.90;;;;;;1030456;28;20053;-70
2022/09/05 04:18:17;;;;;;;3.58;2.90;;;22.00;99.90;;;;;;1030795;28;20373;-71
2022/09/05 04:18:55;;;;;;;3.83;3.00;;;22.10;99.90;;;;;;1030944;28;20488;-70